Time;durP1;ratioP1;P1;durP2;ratioP2;P2;SDS_P1;SDS_P2;PMS_P1;PMS_P2;Temp;Humidity;BMP_temperature;BMP_pressure;BME280_temperature;BME280_humidity;BME280_pressure;Samples;Min_cycle;Max_cycle;Signal;HPM_P1;HPM_P2
2021/12/17 00:00:19;;;;;;;9.50;5.50;;;;;;;;;;7392831;19;19999;-71
2021/12/17 00:05:46;;;;;;;7.45;5.20;;;;;;;;;;7393610;19;20002;-71
2021/12/17 00:08:14;;;;;;;9.63;5.28;;;;;;;;;;7389875;19;20409;-72
2021/12/17 00:10:40;;;;;;;9.80;5.70;;;;;;;;;;7393079;19;19994;-71
2021/12/17 00:13:06;;;;;;;8.55;5.75;;;;;;;;;;7390856;19;20517;-71
2021/12/17 00:15:32;;;;;;;7.53;5.15;;;;;;;;;;7393604;19;19999;-71
2021/12/17 00:17:59;;;;;;;8.35;5.70;;;;;;;;;;7393454;19;20089;-71
2021/12/17 00:20:49;;;;;;;8.80;5.18;;;;;;;;;;7392617;19;20003;-71
2021/12/17 00:50:27;;;;;;;7.03;4.78;;;;;;;;;;7391049;19;20009;-72
2021/12/17 00:52:53;;;;;;;6.18;3.92;;;;;;;;;;7389070;19;20050;-71
2021/12/17 00:55:18;;;;;;;6.90;4.70;;;;;;;;;;7391199;19;19995;-71
2021/12/17 00:57:45;;;;;;;7.70;4.40;;;;;;;;;;7392232;19;19998;-71
2021/12/17 01:00:20;;;;;;;9.13;4.90;;;;;;;;;;7390798;19;19995;-71
2021/12/17 01:02:46;;;;;;;;;;;;;;;;;;7391274;19;20014;-71
2021/12/17 01:05:19;;;;;;;5.43;3.53;;;;;;;;;;7391746;19;19919;-71
2021/12/17 01:07:47;;;;;;;6.28;4.28;;;;;;;;;;7390907;19;20002;-71
2021/12/17 01:10:26;;;;;;;9.43;5.43;;;;;;;;;;7391275;19;20007;-72
2021/12/17 01:12:51;;;;;;;7.70;5.10;;;;;;;;;;7392209;19;19998;-69
2021/12/17 01:15:19;;;;;;;8.25;5.22;;;;;;;;;;7391118;19;20358;-71
2021/12/17 01:17:47;;;;;;;7.63;5.07;;;;;;;;;;7391477;19;20078;-71
2021/12/17 01:20:44;;;;;;;8.77;5.30;;;;;;;;;;7390438;19;20008;-71
2021/12/17 01:24:04;;;;;;;8.82;5.38;;;;;;;;;;7388312;19;19999;-70
2021/12/17 01:36:35;;;;;;;7.82;5.00;;;;;;;;;;7391732;19;20011;-71
2021/12/17 01:44:11;;;;;;;8.82;5.28;;;;;;;;;;7390503;19;20003;-71
2021/12/17 01:46:38;;;;;;;8.38;5.35;;;;;;;;;;7391081;19;20010;-69
2021/12/17 01:55:48;;;;;;;7.47;5.07;;;;;;;;;;7389825;19;20463;-71
2021/12/17 02:00:06;;;;;;;6.97;4.78;;;;;;;;;;7390865;19;20003;-71
2021/12/17 02:02:41;;;;;;;9.10;5.53;;;;;;;;;;7392667;19;20065;-71
2021/12/17 02:05:07;;;;;;;7.00;5.00;;;;;;;;;;7390187;19;19991;-71
2021/12/17 02:07:33;;;;;;;7.53;4.70;;;;;;;;;;7389043;19;20018;-70
2021/12/17 02:30:02;;;;;;;8.57;4.70;;;;;;;;;;7386790;19;20019;-71
2021/12/17 02:32:30;;;;;;;9.23;5.88;;;;;;;;;;7387697;19;20020;-71
2021/12/17 02:35:15;;;;;;;10.48;6.15;;;;;;;;;;7388752;19;20013;-71
2021/12/17 02:37:43;;;;;;;8.45;5.30;;;;;;;;;;7388773;19;20003;-71
2021/12/17 02:48:07;;;;;;;7.93;4.85;;;;;;;;;;7387855;19;19998;-69
2021/12/17 02:50:56;;;;;;;11.52;5.03;;;;;;;;;;7392002;19;20002;-70
2021/12/17 02:53:24;;;;;;;9.40;5.43;;;;;;;;;;7386745;19;20365;-69
2021/12/17 02:55:56;;;;;;;8.70;4.97;;;;;;;;;;7388568;19;20003;-71
2021/12/17 02:58:24;;;;;;;10.30;5.35;;;;;;;;;;7387019;19;20011;-71
2021/12/17 03:00:51;;;;;;;12.13;5.95;;;;;;;;;;7388082;19;19999;-71
2021/12/17 03:03:20;;;;;;;13.65;5.63;;;;;;;;;;7386214;19;20490;-71
2021/12/17 03:05:47;;;;;;;10.15;5.90;;;;;;;;;;7388063;19;20030;-71
2021/12/17 03:08:15;;;;;;;10.25;5.72;;;;;;;;;;7385353;19;19998;-69
2021/12/17 03:10:42;;;;;;;12.23;5.43;;;;;;;;;;7387979;19;19999;-72
2021/12/17 03:13:08;;;;;;;9.25;4.78;;;;;;;;;;7386127;19;20062;-72
2021/12/17 03:15:57;;;;;;;7.18;4.40;;;;;;;;;;7387443;19;19999;-70
2021/12/17 03:23:58;;;;;;;10.50;5.75;;;;;;;;;;7387036;19;20341;-71
2021/12/17 03:26:25;;;;;;;17.67;6.95;;;;;;;;;;7387061;19;20449;-71
2021/12/17 03:28:53;;;;;;;10.30;5.32;;;;;;;;;;7384943;19;20492;-71
2021/12/17 03:31:20;;;;;;;10.15;5.53;;;;;;;;;;7387120;19;20509;-72
2021/12/17 03:33:49;;;;;;;15.40;6.03;;;;;;;;;;7387269;19;20445;-71
2021/12/17 03:36:17;;;;;;;16.92;6.68;;;;;;;;;;7387158;19;20006;-72
2021/12/17 03:38:46;;;;;;;14.18;5.72;;;;;;;;;;7387190;19;19999;-71
2021/12/17 03:43:40;;;;;;;17.02;6.25;;;;;;;;;;7387202;19;19999;-71
2021/12/17 03:46:06;;;;;;;12.63;6.78;;;;;;;;;;7387098;19;20013;-70
2021/12/17 03:48:35;;;;;;;14.25;6.90;;;;;;;;;;7384525;19;20003;-71
2021/12/17 03:51:00;;;;;;;13.20;6.30;;;;;;;;;;7387234;19;19995;-71
2021/12/17 03:53:25;;;;;;;13.52;6.72;;;;;;;;;;7385800;19;19991;-70
2021/12/17 03:55:51;;;;;;;9.00;5.43;;;;;;;;;;7386443;19;20002;-72
2021/12/17 03:58:17;;;;;;;12.70;6.07;;;;;;;;;;7385582;19;20086;-70
2021/12/17 04:00:43;;;;;;;13.38;6.97;;;;;;;;;;7386731;19;20006;-71
2021/12/17 04:03:08;;;;;;;13.38;6.63;;;;;;;;;;7384458;19;20330;-71
2021/12/17 04:05:34;;;;;;;10.52;5.25;;;;;;;;;;7386344;19;20054;-71
2021/12/17 04:07:59;;;;;;;14.73;6.80;;;;;;;;;;7384540;19;19999;-71
2021/12/17 04:10:27;;;;;;;15.75;7.63;;;;;;;;;;7386509;19;20003;-71
2021/12/17 04:13:01;;;;;;;16.75;6.80;;;;;;;;;;7385306;19;20074;-71
2021/12/17 04:15:37;;;;;;;12.70;6.53;;;;;;;;;;7386371;19;20002;-71
2021/12/17 04:18:07;;;;;;;14.02;7.15;;;;;;;;;;7386443;19;20100;-71
2021/12/17 04:20:33;;;;;;;11.52;6.43;;;;;;;;;;7385504;19;20016;-70
2021/12/17 04:22:59;;;;;;;10.90;5.18;;;;;;;;;;7383502;19;20018;-70
2021/12/17 04:25:25;;;;;;;12.13;6.38;;;;;;;;;;7385330;19;20489;-71
2021/12/17 04:27:50;;;;;;;10.75;5.68;;;;;;;;;;7386530;19;20318;-71
2021/12/17 04:30:15;;;;;;;12.77;6.40;;;;;;;;;;7395828;19;20076;-71
2021/12/17 04:32:41;;;;;;;11.15;6.30;;;;;;;;;;7395317;19;20005;-71
2021/12/17 04:35:06;;;;;;;9.85;5.97;;;;;;;;;;7392457;19;19998;-71
2021/12/17 04:37:33;;;;;;;8.43;4.97;;;;;;;;;;7392541;19;20017;-72
2021/12/17 04:39:58;;;;;;;11.40;5.43;;;;;;;;;;7391160;19;20274;-71
2021/12/17 04:42:34;;;;;;;10.18;5.38;;;;;;;;;;7390859;19;19994;-71
2021/12/17 04:45:00;;;;;;;10.90;5.65;;;;;;;;;;7392509;19;20092;-72
2021/12/17 04:58:20;;;;;;;15.25;6.90;;;;;;;;;;7392242;19;20013;-72
2021/12/17 05:00:46;;;;;;;14.55;6.30;;;;;;;;;;7392659;19;20504;-71
2021/12/17 05:03:11;;;;;;;18.85;7.18;;;;;;;;;;7389402;19;20029;-70
2021/12/17 05:05:37;;;;;;;14.45;5.82;;;;;;;;;;7392414;19;20409;-72
2021/12/17 05:08:07;;;;;;;16.17;6.53;;;;;;;;;;7390021;19;20009;-70
2021/12/17 05:18:36;;;;;;;19.65;7.38;;;;;;;;;;7392167;19;20038;-71
2021/12/17 05:21:07;;;;;;;24.30;7.28;;;;;;;;;;7392077;19;20018;-71
2021/12/17 05:23:36;;;;;;;28.85;7.30;;;;;;;;;;7390366;19;20003;-71
2021/12/17 05:26:12;;;;;;;20.40;6.80;;;;;;;;;;7391309;19;19994;-72
2021/12/17 05:28:38;;;;;;;38.95;7.40;;;;;;;;;;7388346;19;20318;-71
2021/12/17 05:31:03;;;;;;;36.83;8.02;;;;;;;;;;7390670;19;19995;-71
2021/12/17 05:33:28;;;;;;;37.28;7.28;;;;;;;;;;7390307;19;20025;-71
2021/12/17 05:35:54;;;;;;;33.13;8.07;;;;;;;;;;7390839;19;20037;-69
2021/12/17 05:38:22;;;;;;;23.85;7.38;;;;;;;;;;7388895;19;20015;-71
2021/12/17 05:40:48;;;;;;;44.60;8.40;;;;;;;;;;7390758;19;20483;-71
2021/12/17 05:43:15;;;;;;;33.22;7.57;;;;;;;;;;7388485;19;20073;-72
2021/12/17 05:48:23;;;;;;;22.10;8.05;;;;;;;;;;7388386;19;20355;-71
2021/12/17 05:50:51;;;;;;;43.28;8.55;;;;;;;;;;7390351;19;20009;-71
2021/12/17 05:53:17;;;;;;;19.80;7.72;;;;;;;;;;7387730;19;20036;-70
2021/12/17 05:55:42;;;;;;;20.85;7.90;;;;;;;;;;7390025;19;20002;-71
2021/12/17 05:58:09;;;;;;;15.68;6.90;;;;;;;;;;7389517;19;20447;-72
2021/12/17 06:00:36;;;;;;;25.40;8.20;;;;;;;;;;7389733;19;20509;-71
2021/12/17 06:03:02;;;;;;;21.75;6.95;;;;;;;;;;7388315;19;20437;-71
2021/12/17 06:05:29;;;;;;;14.73;7.15;;;;;;;;;;7390704;19;20002;-71
2021/12/17 06:07:55;;;;;;;17.92;6.97;;;;;;;;;;7390453;19;20028;-71
2021/12/17 06:10:21;;;;;;;16.33;6.45;;;;;;;;;;7391675;19;20441;-72
2021/12/17 06:12:46;;;;;;;19.77;6.85;;;;;;;;;;7392970;19;20002;-72
2021/12/17 06:15:15;;;;;;;15.00;5.97;;;;;;;;;;7389128;19;19994;-71
2021/12/17 06:17:41;;;;;;;17.73;6.50;;;;;;;;;;7389522;19;20023;-71
2021/12/17 06:20:08;;;;;;;20.33;6.15;;;;;;;;;;7388584;19;19999;-71
2021/12/17 06:22:34;;;;;;;12.93;6.25;;;;;;;;;;7387860;19;20002;-70
2021/12/17 06:24:59;;;;;;;26.17;6.93;;;;;;;;;;7388709;19;20338;-70
2021/12/17 06:27:25;;;;;;;21.30;7.20;;;;;;;;;;7388748;19;20522;-71
2021/12/17 06:29:51;;;;;;;19.33;6.50;;;;;;;;;;7387797;19;20008;-71
2021/12/17 06:32:18;;;;;;;14.73;6.65;;;;;;;;;;7388058;19;20014;-71
2021/12/17 06:34:43;;;;;;;27.55;7.28;;;;;;;;;;7389080;19;19999;-72
2021/12/17 06:37:09;;;;;;;15.88;7.32;;;;;;;;;;7388988;19;20457;-71
2021/12/17 06:39:36;;;;;;;25.48;7.57;;;;;;;;;;7386856;19;19999;-71
2021/12/17 06:42:01;;;;;;;18.73;8.70;;;;;;;;;;7387897;19;20003;-72
2021/12/17 06:44:27;;;;;;;14.65;6.40;;;;;;;;;;7388154;19;19990;-71
2021/12/17 06:47:09;;;;;;;16.77;6.72;;;;;;;;;;7388866;19;20358;-72
2021/12/17 07:00:23;;;;;;;30.35;6.18;;;;;;;;;;7390552;19;20007;-72
2021/12/17 07:21:37;;;;;;;10.38;5.35;;;;;;;;;;7387732;19;20007;-72
2021/12/17 07:24:45;;;;;;;56.45;8.07;;;;;;;;;;7386635;19;20028;-71
2021/12/17 07:40:07;;;;;;;26.25;6.00;;;;;;;;;;7385738;19;20019;-72
2021/12/17 07:42:32;;;;;;;18.23;5.40;;;;;;;;;;7385479;19;19998;-71
2021/12/17 07:44:58;;;;;;;42.72;5.72;;;;;;;;;;7386426;19;20350;-71
2021/12/17 07:47:23;;;;;;;67.32;6.30;;;;;;;;;;7387868;19;19999;-72
2021/12/17 07:49:49;;;;;;;17.00;4.78;;;;;;;;;;7389746;19;20611;-72
2021/12/17 07:52:14;;;;;;;24.45;4.88;;;;;;;;;;7385293;19;20002;-71
2021/12/17 07:54:39;;;;;;;14.13;4.40;;;;;;;;;;7385828;19;20002;-72
2021/12/17 07:57:05;;;;;;;13.38;3.80;;;;;;;;;;7386796;19;20603;-71
2021/12/17 07:59:30;;;;;;;18.17;4.80;;;;;;;;;;7385116;19;20008;-72
2021/12/17 08:01:55;;;;;;;14.88;4.50;;;;;;;;;;7385740;19;20010;-72
2021/12/17 08:04:22;;;;;;;21.98;5.35;;;;;;;;;;7392708;19;20710;-72
2021/12/17 08:06:47;;;;;;;12.93;4.90;;;;;;;;;;7394012;19;20330;-72
2021/12/17 08:09:13;;;;;;;13.10;4.47;;;;;;;;;;7389670;19;20097;-72
2021/12/17 08:11:39;;;;;;;8.93;4.28;;;;;;;;;;7392567;19;20006;-71
2021/12/17 08:14:10;;;;;;;15.55;4.30;;;;;;;;;;7393966;19;20080;-71
2021/12/17 08:16:47;;;;;;;12.93;4.53;;;;;;;;;;7394189;19;19995;-71
2021/12/17 08:27:25;;;;;;;7.53;3.97;;;;;;;;;;7393036;19;19998;-72
2021/12/17 08:32:20;;;;;;;8.85;4.18;;;;;;;;;;7391364;19;20002;-71
2021/12/17 08:34:46;;;;;;;7.32;4.18;;;;;;;;;;7392281;19;20020;-72
2021/12/17 08:37:11;;;;;;;12.13;4.45;;;;;;;;;;7395466;19;20536;-72
2021/12/17 08:39:37;;;;;;;8.15;4.22;;;;;;;;;;7395520;19;19998;-71
2021/12/17 08:42:03;;;;;;;10.45;4.25;;;;;;;;;;7391386;19;20437;-72
2021/12/17 08:44:28;;;;;;;15.23;4.90;;;;;;;;;;7392644;19;20003;-72
2021/12/17 08:46:53;;;;;;;17.52;4.45;;;;;;;;;;7392523;19;20001;-72
2021/12/17 08:49:19;;;;;;;6.57;3.22;;;;;;;;;;7388358;19;20066;-71
2021/12/17 08:51:45;;;;;;;21.25;4.63;;;;;;;;;;7391820;19;20023;-72
2021/12/17 08:54:10;;;;;;;13.73;4.43;;;;;;;;;;7391839;19;19995;-72
2021/12/17 08:56:42;;;;;;;19.27;5.47;;;;;;;;;;7392136;19;20002;-71
2021/12/17 08:59:08;;;;;;;12.13;4.85;;;;;;;;;;7391237;19;20014;-72
2021/12/17 09:01:34;;;;;;;10.68;4.57;;;;;;;;;;7391412;19;20006;-72
2021/12/17 09:04:00;;;;;;;7.10;4.10;;;;;;;;;;7391453;19;20005;-72
2021/12/17 09:06:27;;;;;;;8.13;4.68;;;;;;;;;;7392029;19;19999;-72
2021/12/17 09:08:56;;;;;;;7.68;4.00;;;;;;;;;;7388253;19;20005;-73
2021/12/17 09:11:29;;;;;;;5.53;3.20;;;;;;;;;;7390962;19;20354;-72
2021/12/17 09:13:57;;;;;;;7.57;3.95;;;;;;;;;;7390754;19;20022;-72
2021/12/17 09:16:23;;;;;;;13.23;4.35;;;;;;;;;;7391470;19;19999;-72
2021/12/17 09:18:49;;;;;;;5.47;3.13;;;;;;;;;;7390407;19;19990;-71
2021/12/17 09:21:15;;;;;;;5.32;3.40;;;;;;;;;;7391137;19;20029;-73
2021/12/17 09:23:41;;;;;;;7.07;3.65;;;;;;;;;;7390557;19;20355;-72
2021/12/17 09:26:06;;;;;;;11.70;4.05;;;;;;;;;;7391414;19;20005;-70
2021/12/17 09:28:31;;;;;;;7.90;3.88;;;;;;;;;;7392781;19;20365;-72
2021/12/17 09:30:58;;;;;;;12.88;4.43;;;;;;;;;;7391027;19;20457;-73
2021/12/17 09:33:25;;;;;;;40.67;5.90;;;;;;;;;;7390946;19;20012;-72
2021/12/17 09:35:51;;;;;;;9.65;3.90;;;;;;;;;;7390840;19;19999;-72
2021/12/17 09:38:16;;;;;;;11.15;3.25;;;;;;;;;;7389256;19;20006;-71
2021/12/17 09:40:42;;;;;;;14.55;3.08;;;;;;;;;;7391327;19;20066;-72
2021/12/17 09:43:08;;;;;;;8.43;3.28;;;;;;;;;;7388483;19;20013;-72
2021/12/17 09:45:33;;;;;;;5.80;2.90;;;;;;;;;;7390350;19;19994;-73
2021/12/17 09:48:00;;;;;;;8.77;2.47;;;;;;;;;;7389297;19;20006;-71
2021/12/17 09:50:25;;;;;;;11.18;2.80;;;;;;;;;;7389608;19;20066;-72
2021/12/17 09:52:53;;;;;;;6.25;3.05;;;;;;;;;;7389052;19;20020;-72
2021/12/17 09:55:19;;;;;;;5.10;2.92;;;;;;;;;;7389451;19;20063;-71
2021/12/17 09:57:44;;;;;;;7.88;3.40;;;;;;;;;;7390199;19;19998;-72
2021/12/17 10:00:15;;;;;;;8.52;2.95;;;;;;;;;;7389145;19;19994;-71
2021/12/17 10:02:44;;;;;;;4.47;2.53;;;;;;;;;;7388740;19;20010;-72
2021/12/17 10:05:13;;;;;;;5.22;2.72;;;;;;;;;;7389839;19;20024;-71
2021/12/17 10:07:41;;;;;;;3.60;2.30;;;;;;;;;;7389350;19;20016;-72
2021/12/17 10:10:07;;;;;;;4.35;2.65;;;;;;;;;;7388280;19;19998;-72
2021/12/17 10:12:34;;;;;;;4.90;2.80;;;;;;;;;;7388462;19;20062;-73
2021/12/17 10:15:11;;;;;;;4.75;3.13;;;;;;;;;;7389587;19;20479;-73
2021/12/17 10:17:58;;;;;;;4.97;3.05;;;;;;;;;;7392971;19;20043;-72
2021/12/17 10:20:24;;;;;;;5.03;2.83;;;;;;;;;;7392770;19;20500;-72
2021/12/17 10:23:00;;;;;;;4.75;3.15;;;;;;;;;;7388123;19;19995;-72
2021/12/17 10:25:27;;;;;;;4.80;2.72;;;;;;;;;;7385797;19;20009;-72
2021/12/17 10:27:59;;;;;;;5.28;2.58;;;;;;;;;;7388380;19;20003;-72
2021/12/17 10:30:26;;;;;;;5.07;3.00;;;;;;;;;;7388292;19;20008;-71
2021/12/17 10:32:55;;;;;;;4.43;3.00;;;;;;;;;;7387485;19;20492;-73
2021/12/17 10:35:30;;;;;;;3.72;3.05;;;;;;;;;;7389103;19;20015;-72
2021/12/17 10:38:00;;;;;;;;;;;;;;;;;;7389488;19;20480;-72
2021/12/17 10:40:30;;;;;;;6.00;2.75;;;;;;;;;;7388112;19;19939;-72
2021/12/17 10:43:08;;;;;;;7.80;3.58;;;;;;;;;;7387301;19;20009;-73
2021/12/17 10:45:41;;;;;;;5.63;3.63;;;;;;;;;;7389114;19;19991;-72
2021/12/17 10:48:55;;;;;;;5.07;3.13;;;;;;;;;;7387602;19;20003;-72
2021/12/17 10:51:13;;;;;;;4.95;2.45;;;;;;;;;;7387426;19;20010;-73
2021/12/17 10:53:44;;;;;;;4.97;2.83;;;;;;;;;;7387922;19;20015;-72
2021/12/17 10:56:14;;;;;;;5.05;3.30;;;;;;;;;;7388290;19;20616;-72
2021/12/17 10:58:52;;;;;;;6.55;3.28;;;;;;;;;;7386982;19;20033;-72
2021/12/17 11:01:27;;;;;;;5.53;3.25;;;;;;;;;;7387889;19;20002;-73
2021/12/17 11:04:06;;;;;;;5.47;3.28;;;;;;;;;;7387985;19;20007;-70
2021/12/17 11:06:57;;;;;;;3.80;2.90;;;;;;;;;;7389326;19;20070;-73
2021/12/17 11:09:41;;;;;;;4.95;3.15;;;;;;;;;;7388225;19;20002;-73
2021/12/17 11:12:29;;;;;;;4.93;3.38;;;;;;;;;;7387002;19;20016;-73
2021/12/17 11:15:19;;;;;;;4.00;2.83;;;;;;;;;;7388119;19;20092;-72
2021/12/17 11:17:57;;;;;;;3.72;2.78;;;;;;;;;;7388640;19;20006;-73
2021/12/17 11:20:32;;;;;;;4.13;3.13;;;;;;;;;;7386932;19;19998;-71
2021/12/17 11:23:05;;;;;;;4.68;3.17;;;;;;;;;;7385929;19;20037;-73
2021/12/17 11:25:31;;;;;;;5.00;3.28;;;;;;;;;;7387457;19;20009;-73
2021/12/17 11:27:57;;;;;;;6.07;3.38;;;;;;;;;;7386297;19;20003;-73
2021/12/17 11:30:25;;;;;;;6.97;3.05;;;;;;;;;;7386560;19;20023;-73
2021/12/17 11:32:52;;;;;;;6.43;3.67;;;;;;;;;;7385696;19;20003;-72
2021/12/17 11:35:21;;;;;;;5.05;2.95;;;;;;;;;;7387184;19;19995;-72
2021/12/17 11:37:49;;;;;;;4.80;2.78;;;;;;;;;;7391615;19;20465;-72
2021/12/17 11:40:27;;;;;;;6.25;3.30;;;;;;;;;;7393134;19;20472;-72
2021/12/17 11:43:23;;;;;;;4.70;2.72;;;;;;;;;;7392692;19;20005;-73
2021/12/17 11:46:12;;;;;;;5.00;3.42;;;;;;;;;;7394593;19;20010;-73
2021/12/17 11:48:38;;;;;;;5.10;3.58;;;;;;;;;;7391776;19;20003;-73
2021/12/17 11:51:12;;;;;;;4.45;3.13;;;;;;;;;;7394217;19;20480;-73
2021/12/17 11:53:53;;;;;;;4.78;3.00;;;;;;;;;;7393572;19;19999;-72
2021/12/17 11:56:49;;;;;;;4.80;3.03;;;;;;;;;;7394947;19;19994;-73
2021/12/17 11:59:27;;;;;;;5.47;3.50;;;;;;;;;;7395154;19;20552;-73
2021/12/17 12:02:17;;;;;;;7.50;3.53;;;;;;;;;;7392654;19;20037;-72
2021/12/17 12:04:45;;;;;;;4.35;3.22;;;;;;;;;;7393911;19;19999;-73
2021/12/17 12:07:16;;;;;;;6.35;3.80;;;;;;;;;;7393430;19;20404;-73
2021/12/17 12:10:03;;;;;;;4.75;3.35;;;;;;;;;;7392417;19;19999;-72
2021/12/17 12:12:31;;;;;;;4.53;3.08;;;;;;;;;;7391788;19;20369;-72
2021/12/17 12:15:22;;;;;;;5.65;3.42;;;;;;;;;;7393520;19;19999;-73
2021/12/17 12:17:57;;;;;;;4.70;2.92;;;;;;;;;;7393422;19;20019;-72
2021/12/17 12:20:55;;;;;;;4.73;3.50;;;;;;;;;;7393294;19;20071;-73
2021/12/17 12:23:22;;;;;;;4.55;2.90;;;;;;;;;;7393455;19;20476;-72
2021/12/17 12:26:18;;;;;;;4.80;2.78;;;;;;;;;;7394052;19;20009;-72
2021/12/17 12:28:49;;;;;;;3.70;2.88;;;;;;;;;;7390755;19;20002;-72
2021/12/17 12:31:23;;;;;;;3.15;2.45;;;;;;;;;;7392860;19;21381;-73
2021/12/17 12:34:01;;;;;;;3.28;2.40;;;;;;;;;;7393357;19;19998;-73
2021/12/17 12:36:47;;;;;;;3.83;2.70;;;;;;;;;;7392959;19;19998;-73
2021/12/17 12:39:19;;;;;;;3.92;3.00;;;;;;;;;;7391318;19;19994;-72
2021/12/17 12:41:55;;;;;;;3.58;2.88;;;;;;;;;;7392087;19;20007;-72
2021/12/17 12:44:41;;;;;;;3.33;2.78;;;;;;;;;;7392493;19;20014;-73
2021/12/17 12:47:14;;;;;;;3.20;2.45;;;;;;;;;;7394774;19;20002;-71
2021/12/17 12:49:49;;;;;;;3.15;2.22;;;;;;;;;;7394231;19;20002;-72
2021/12/17 12:52:21;;;;;;;4.07;2.58;;;;;;;;;;7390926;19;20043;-72
2021/12/17 12:54:56;;;;;;;3.58;2.78;;;;;;;;;;7391751;19;19991;-72
2021/12/17 12:57:28;;;;;;;;;;;;;;;;;;7392968;19;19998;-72
2021/12/17 12:59:55;;;;;;;3.45;2.33;;;;;;;;;;7391585;19;19922;-73
2021/12/17 13:02:25;;;;;;;7.35;2.65;;;;;;;;;;7390672;19;20026;-73
2021/12/17 13:04:57;;;;;;;4.45;2.70;;;;;;;;;;7390738;19;20005;-72
2021/12/17 13:07:47;;;;;;;5.07;3.28;;;;;;;;;;7391803;19;20002;-72
2021/12/17 13:10:29;;;;;;;5.05;3.20;;;;;;;;;;7390377;19;19998;-72
2021/12/17 13:13:04;;;;;;;4.07;2.60;;;;;;;;;;7389584;19;20007;-72
2021/12/17 13:15:42;;;;;;;3.92;2.97;;;;;;;;;;7392351;19;20002;-72
2021/12/17 13:23:28;;;;;;;3.90;2.42;;;;;;;;;;7391408;19;20003;-72
2021/12/17 13:26:25;;;;;;;4.00;2.65;;;;;;;;;;7391584;19;20010;-72
2021/12/17 13:28:50;;;;;;;11.57;6.40;;;;;;;;;;7388171;19;20095;-72
2021/12/17 13:31:42;;;;;;;17.50;8.35;;;;;;;;;;7391242;19;20113;-72
2021/12/17 13:34:22;;;;;;;5.18;3.50;;;;;;;;;;7391084;19;20341;-72
2021/12/17 13:36:59;;;;;;;4.47;3.28;;;;;;;;;;7393658;19;19998;-72
2021/12/17 13:39:31;;;;;;;4.65;3.30;;;;;;;;;;7393192;19;20149;-72
2021/12/17 13:41:57;;;;;;;4.00;2.85;;;;;;;;;;7389804;19;20330;-72
2021/12/17 13:44:33;;;;;;;4.65;3.30;;;;;;;;;;7391026;19;20097;-72
2021/12/17 13:47:19;;;;;;;6.07;3.40;;;;;;;;;;7391016;19;20327;-72
2021/12/17 13:49:58;;;;;;;4.80;3.25;;;;;;;;;;7390507;19;19998;-73
2021/12/17 13:52:26;;;;;;;3.33;2.78;;;;;;;;;;7389439;19;20066;-73
2021/12/17 13:54:53;;;;;;;7.20;3.13;;;;;;;;;;7390024;19;19998;-72
2021/12/17 13:57:21;;;;;;;5.18;3.78;;;;;;;;;;7390073;19;20002;-73
2021/12/17 13:59:47;;;;;;;7.57;3.80;;;;;;;;;;7387970;19;20013;-72
2021/12/17 14:02:17;;;;;;;8.55;3.92;;;;;;;;;;7387711;19;20465;-72
2021/12/17 14:04:57;;;;;;;5.35;3.85;;;;;;;;;;7389946;19;20496;-72
2021/12/17 14:07:27;;;;;;;4.20;2.95;;;;;;;;;;7389884;19;20001;-72
2021/12/17 14:10:01;;;;;;;4.72;3.40;;;;;;;;;;7388672;19;20409;-72
2021/12/17 14:12:31;;;;;;;6.28;3.83;;;;;;;;;;7388530;19;20013;-72
2021/12/17 14:14:59;;;;;;;5.35;3.45;;;;;;;;;;7389874;19;19998;-71
2021/12/17 14:17:24;;;;;;;5.65;3.58;;;;;;;;;;7389862;19;19998;-72
2021/12/17 14:19:50;;;;;;;6.35;4.10;;;;;;;;;;7388899;19;19995;-73
2021/12/17 14:22:32;;;;;;;4.95;3.40;;;;;;;;;;7388720;19;20464;-73
2021/12/17 14:24:58;;;;;;;6.03;4.20;;;;;;;;;;7389610;19;19999;-72
2021/12/17 14:27:46;;;;;;;6.15;4.28;;;;;;;;;;7393089;19;20013;-73
2021/12/17 14:30:12;;;;;;;7.95;4.82;;;;;;;;;;7388199;19;20005;-72
2021/12/17 14:32:46;;;;;;;7.57;5.03;;;;;;;;;;7387950;19;20048;-73
2021/12/17 14:35:12;;;;;;;7.78;5.22;;;;;;;;;;7393481;19;20342;-73
2021/12/17 14:37:51;;;;;;;10.88;6.15;;;;;;;;;;7388954;19;20022;-72
2021/12/17 14:40:30;;;;;;;9.23;4.82;;;;;;;;;;7387592;19;20070;-73
2021/12/17 14:42:57;;;;;;;10.32;5.88;;;;;;;;;;7387566;19;20390;-73
2021/12/17 14:45:39;;;;;;;9.45;5.50;;;;;;;;;;7389609;19;19998;-72
2021/12/17 14:48:16;;;;;;;8.45;5.15;;;;;;;;;;7387373;19;20036;-72
2021/12/17 15:04:47;;;;;;;8.23;5.03;;;;;;;;;;7388714;19;19998;-72
2021/12/17 15:07:13;;;;;;;8.07;4.50;;;;;;;;;;7388416;19;20066;-73
2021/12/17 15:09:43;;;;;;;7.97;3.97;;;;;;;;;;7386629;19;20003;-73
2021/12/17 15:12:37;;;;;;;6.95;3.75;;;;;;;;;;7385743;19;20031;-73
2021/12/17 15:15:00;;;;;;;7.55;4.95;;;;;;;;;;7388266;19;20003;-73
2021/12/17 15:17:25;;;;;;;9.15;5.60;;;;;;;;;;7391538;19;20003;-72
2021/12/17 15:19:51;;;;;;;8.98;5.68;;;;;;;;;;7386640;19;19995;-73
2021/12/17 15:22:16;;;;;;;7.75;5.57;;;;;;;;;;7386482;19;20002;-72
2021/12/17 15:24:42;;;;;;;6.78;4.45;;;;;;;;;;7387330;19;19999;-72
2021/12/17 15:27:07;;;;;;;9.40;4.88;;;;;;;;;;7387393;19;20009;-72
2021/12/17 15:29:33;;;;;;;7.53;3.88;;;;;;;;;;7384293;19;20012;-73
2021/12/17 15:31:58;;;;;;;8.00;3.55;;;;;;;;;;7386887;19;20453;-73
2021/12/17 15:34:24;;;;;;;5.78;3.83;;;;;;;;;;7386975;19;19991;-73
2021/12/17 15:36:50;;;;;;;9.45;4.75;;;;;;;;;;7387689;19;20006;-73
2021/12/17 15:39:15;;;;;;;6.47;3.95;;;;;;;;;;7385556;19;20003;-73
2021/12/17 15:41:42;;;;;;;7.38;4.47;;;;;;;;;;7386526;19;20399;-73
2021/12/17 15:44:09;;;;;;;6.75;3.85;;;;;;;;;;7386617;19;20002;-74
2021/12/17 15:46:34;;;;;;;7.05;4.65;;;;;;;;;;7387190;19;20002;-73
2021/12/17 15:49:00;;;;;;;10.57;4.78;;;;;;;;;;7384983;19;19994;-72
2021/12/17 15:51:25;;;;;;;5.15;3.35;;;;;;;;;;7386953;19;20009;-74
2021/12/17 15:53:51;;;;;;;7.35;4.70;;;;;;;;;;7385961;19;19999;-72
2021/12/17 15:56:16;;;;;;;6.30;4.60;;;;;;;;;;7386381;19;19995;-73
2021/12/17 15:58:41;;;;;;;8.35;5.03;;;;;;;;;;7385456;19;20025;-72
2021/12/17 16:01:07;;;;;;;8.57;4.80;;;;;;;;;;7386486;19;20003;-72
2021/12/17 16:03:35;;;;;;;10.77;4.95;;;;;;;;;;7386742;19;19999;-73
2021/12/17 16:06:03;;;;;;;9.10;4.60;;;;;;;;;;7388945;19;20002;-73
2021/12/17 16:08:31;;;;;;;10.90;5.22;;;;;;;;;;7387420;19;20005;-72
2021/12/17 16:21:26;;;;;;;12.50;7.00;;;;;;;;;;7385156;19;20357;-72
2021/12/17 16:23:54;;;;;;;14.23;6.68;;;;;;;;;;7386920;19;20009;-72
2021/12/17 16:26:22;;;;;;;11.23;6.35;;;;;;;;;;7393896;19;20090;-73
2021/12/17 16:28:48;;;;;;;10.15;6.05;;;;;;;;;;7391043;19;20007;-72
2021/12/17 16:31:26;;;;;;;10.63;5.78;;;;;;;;;;7393348;19;20079;-74
2021/12/17 16:33:54;;;;;;;9.80;5.47;;;;;;;;;;7394147;19;20022;-73
2021/12/17 16:36:21;;;;;;;9.95;5.78;;;;;;;;;;7393540;19;20472;-72
2021/12/17 16:38:46;;;;;;;10.93;6.05;;;;;;;;;;7391454;19;20028;-72
2021/12/17 16:41:12;;;;;;;12.30;6.43;;;;;;;;;;7392756;19;19995;-73
2021/12/17 16:43:40;;;;;;;9.27;5.70;;;;;;;;;;7392775;19;20461;-72
2021/12/17 16:48:42;;;;;;;8.35;4.90;;;;;;;;;;7389900;19;20002;-72
2021/12/17 16:51:09;;;;;;;10.05;5.82;;;;;;;;;;7392354;19;20005;-73
2021/12/17 16:53:34;;;;;;;8.13;4.78;;;;;;;;;;7391754;19;20006;-73
2021/12/17 16:56:00;;;;;;;10.45;5.43;;;;;;;;;;7394029;19;20460;-72
2021/12/17 16:58:26;;;;;;;6.90;4.30;;;;;;;;;;7395349;19;20005;-73
2021/12/17 17:00:51;;;;;;;9.48;5.25;;;;;;;;;;7391973;19;19995;-74
2021/12/17 17:03:16;;;;;;;8.68;4.75;;;;;;;;;;7389698;19;20002;-72
2021/12/17 17:05:43;;;;;;;9.90;5.78;;;;;;;;;;7392107;19;20003;-73
2021/12/17 17:08:09;;;;;;;8.02;4.50;;;;;;;;;;7389706;19;20005;-72
2021/12/17 17:10:34;;;;;;;9.95;5.15;;;;;;;;;;7392976;19;19999;-72
2021/12/17 17:13:03;;;;;;;9.27;5.13;;;;;;;;;;7389625;19;19995;-73
2021/12/17 17:15:34;;;;;;;10.32;6.05;;;;;;;;;;7391691;19;20022;-73
2021/12/17 17:18:03;;;;;;;8.73;5.25;;;;;;;;;;7391470;19;20022;-73
2021/12/17 17:20:30;;;;;;;9.35;5.57;;;;;;;;;;7390680;19;19999;-72
2021/12/17 17:22:56;;;;;;;10.02;6.07;;;;;;;;;;7389399;19;20005;-72
2021/12/17 17:25:22;;;;;;;12.63;5.28;;;;;;;;;;7390518;19;20003;-73
2021/12/17 17:27:47;;;;;;;10.48;6.10;;;;;;;;;;7388871;19;20009;-72
2021/12/17 17:30:13;;;;;;;10.13;5.68;;;;;;;;;;7390151;19;20015;-72
2021/12/17 17:32:40;;;;;;;8.20;5.03;;;;;;;;;;7389797;19;20026;-73
2021/12/17 17:35:05;;;;;;;10.00;5.43;;;;;;;;;;7390367;19;20401;-72
2021/12/17 17:37:31;;;;;;;10.98;5.68;;;;;;;;;;7390933;19;20006;-73
2021/12/17 17:39:58;;;;;;;16.52;8.00;;;;;;;;;;7389390;19;19999;-73
2021/12/17 17:42:23;;;;;;;15.48;8.10;;;;;;;;;;7389478;19;20010;-72
2021/12/17 17:44:48;;;;;;;14.57;7.13;;;;;;;;;;7391937;19;19999;-72
2021/12/17 17:47:14;;;;;;;12.35;5.43;;;;;;;;;;7394050;19;20334;-72
2021/12/17 17:49:39;;;;;;;12.70;7.50;;;;;;;;;;7387783;19;20003;-73
2021/12/17 17:52:05;;;;;;;12.55;7.03;;;;;;;;;;7389361;19;20010;-73
2021/12/17 17:54:30;;;;;;;13.80;8.00;;;;;;;;;;7390123;19;20127;-72
2021/12/17 17:56:55;;;;;;;15.18;7.85;;;;;;;;;;7390477;19;20005;-72
2021/12/17 17:59:21;;;;;;;16.63;9.05;;;;;;;;;;7388827;19;20011;-73
2021/12/17 18:01:47;;;;;;;15.50;7.78;;;;;;;;;;7389868;19;20003;-73
2021/12/17 18:04:12;;;;;;;18.08;8.30;;;;;;;;;;7389695;19;19999;-73
2021/12/17 18:06:38;;;;;;;13.73;6.90;;;;;;;;;;7390450;19;20080;-72
2021/12/17 18:09:03;;;;;;;16.55;7.35;;;;;;;;;;7387457;19;20562;-74
2021/12/17 18:11:28;;;;;;;24.73;9.65;;;;;;;;;;7390132;19;20013;-72